sensor_id;sensor_type;location;lat;lon;timestamp;temperature;humidity
42145;DHT22;27813;43.516;11.890;2022-08-19T03:21:26;20.00;94.90
42145;DHT22;27813;43.516;11.890;2022-08-19T03:25:31;20.00;94.90
42145;DHT22;27813;43.516;11.890;2022-08-19T03:29:40;20.00;94.80
42145;DHT22;27813;43.516;11.890;2022-08-19T03:33:46;20.00;94.80
42145;DHT22;27813;43.516;11.890;2022-08-19T03:37:53;19.90;94.80
42145;DHT22;27813;43.516;11.890;2022-08-19T03:41:58;19.90;94.80
42145;DHT22;27813;43.516;11.890;2022-08-19T03:46:31;19.80;94.70
42145;DHT22;27813;43.516;11.890;2022-08-19T03:50:39;19.80;94.80
42145;DHT22;27813;43.516;11.890;2022-08-19T03:54:44;19.80;94.80
42145;DHT22;27813;43.516;11.890;2022-08-19T03:58:49;19.80;94.90
42145;DHT22;27813;43.516;11.890;2022-08-19T04:02:53;19.80;95.00
42145;DHT22;27813;43.516;11.890;2022-08-19T04:07:02;19.90;94.90
42145;DHT22;27813;43.516;11.890;2022-08-19T04:11:09;20.00;94.90
42145;DHT22;27813;43.516;11.890;2022-08-19T04:15:14;20.00;94.90
42145;DHT22;27813;43.516;11.890;2022-08-19T04:19:20;20.00;94.90
42145;DHT22;27813;43.516;11.890;2022-08-19T04:23:24;20.00;94.90
42145;DHT22;27813;43.516;11.890;2022-08-19T04:27:32;20.00;94.80
42145;DHT22;27813;43.516;11.890;2022-08-19T04:31:37;20.10;94.80
42145;DHT22;27813;43.516;11.890;2022-08-19T04:35:44;20.20;94.80
42145;DHT22;27813;43.516;11.890;2022-08-19T04:39:48;20.20;94.80
42145;DHT22;27813;43.516;11.890;2022-08-19T04:44:13;20.20;94.80
42145;DHT22;27813;43.516;11.890;2022-08-19T04:48:22;20.30;94.70
42145;DHT22;27813;43.516;11.890;2022-08-19T04:52:30;20.20;94.70
42145;DHT22;27813;43.516;11.890;2022-08-19T04:56:36;20.20;94.70
42145;DHT22;27813;43.516;11.890;2022-08-19T05:00:41;20.20;94.60
42145;DHT22;27813;43.516;11.890;2022-08-19T05:04:45;20.20;94.70
42145;DHT22;27813;43.516;11.890;2022-08-19T05:08:50;20.20;94.80
42145;DHT22;27813;43.516;11.890;2022-08-19T05:12:54;20.20;94.70
42145;DHT22;27813;43.516;11.890;2022-08-19T05:17:01;20.30;94.80
42145;DHT22;27813;43.516;11.890;2022-08-19T05:21:27;20.30;94.70
42145;DHT22;27813;43.516;11.890;2022-08-19T05:25:51;20.40;94.70
42145;DHT22;27813;43.516;11.890;2022-08-19T05:29:57;20.50;94.60
42145;DHT22;27813;43.516;11.890;2022-08-19T05:34:04;20.50;94.40
42145;DHT22;27813;43.516;11.890;2022-08-19T05:38:21;20.40;94.50
42145;DHT22;27813;43.516;11.890;2022-08-19T05:42:25;20.40;94.60
42145;DHT22;27813;43.516;11.890;2022-08-19T05:46:30;20.40;94.70
42145;DHT22;27813;43.516;11.890;2022-08-19T05:50:35;20.50;94.60
42145;DHT22;27813;43.516;11.890;2022-08-19T05:54:42;20.50;94.60
42145;DHT22;27813;43.516;11.890;2022-08-19T05:58:49;20.60;94.50
42145;DHT22;27813;43.516;11.890;2022-08-19T06:02:54;20.70;94.60
42145;DHT22;27813;43.516;11.890;2022-08-19T06:07:00;20.90;94.50
42145;DHT22;27813;43.516;11.890;2022-08-19T06:11:19;21.00;94.40
42145;DHT22;27813;43.516;11.890;2022-08-19T06:15:23;21.50;94.50
42145;DHT22;27813;43.516;11.890;2022-08-19T06:19:30;21.80;93.50
42145;DHT22;27813;43.516;11.890;2022-08-19T06:23:34;22.20;93.40
42145;DHT22;27813;43.516;11.890;2022-08-19T06:27:39;22.50;92.80
42145;DHT22;27813;43.516;11.890;2022-08-19T06:32:04;22.30;92.80
42145;DHT22;27813;43.516;11.890;2022-08-19T06:36:26;22.30;93.00
42145;DHT22;27813;43.516;11.890;2022-08-19T06:40:37;22.30;93.10
42145;DHT22;27813;43.516;11.890;2022-08-19T06:44:44;23.10;93.70
42145;DHT22;27813;43.516;11.890;2022-08-19T06:48:52;24.10;91.10
42145;DHT22;27813;43.516;11.890;2022-08-19T06:52:58;24.00;90.80
42145;DHT22;27813;43.516;11.890;2022-08-19T06:57:07;23.90;91.10
42145;DHT22;27813;43.516;11.890;2022-08-19T07:01:16;23.80;91.70
42145;DHT22;27813;43.516;11.890;2022-08-19T07:05:22;23.80;92.10
42145;DHT22;27813;43.516;11.890;2022-08-19T07:09:28;24.20;92.10
42145;DHT22;27813;43.516;11.890;2022-08-19T07:13:36;24.30;91.50
42145;DHT22;27813;43.516;11.890;2022-08-19T07:17:41;24.30;91.70
42145;DHT22;27813;43.516;11.890;2022-08-19T07:21:56;24.40;91.50
42145;DHT22;27813;43.516;11.890;2022-08-19T07:26:31;24.50;91.60
42145;DHT22;27813;43.516;11.890;2022-08-19T07:30:37;25.00;90.70
42145;DHT22;27813;43.516;11.890;2022-08-19T07:34:46;24.90;90.10
42145;DHT22;27813;43.516;11.890;2022-08-19T07:38:52;24.80;90.70
42145;DHT22;27813;43.516;11.890;2022-08-19T07:42:58;25.00;90.70
42145;DHT22;27813;43.516;11.890;2022-08-19T07:47:04;25.30;90.50
42145;DHT22;27813;43.516;11.890;2022-08-19T07:51:10;25.40;89.90
42145;DHT22;27813;43.516;11.890;2022-08-19T07:55:20;25.20;90.20
42145;DHT22;27813;43.516;11.890;2022-08-19T07:59:45;25.20;90.60
42145;DHT22;27813;43.516;11.890;2022-08-19T08:03:51;25.40;90.70
42145;DHT22;27813;43.516;11.890;2022-08-19T08:08:14;25.80;90.10
42145;DHT22;27813;43.516;11.890;2022-08-19T08:12:40;26.10;89.10
42145;DHT22;27813;43.516;11.890;2022-08-19T08:17:06;26.30;88.60
42145;DHT22;27813;43.516;11.890;2022-08-19T08:21:13;26.50;88.20
42145;DHT22;27813;43.516;11.890;2022-08-19T08:25:21;26.90;88.10
42145;DHT22;27813;43.516;11.890;2022-08-19T08:29:31;27.20;87.40
42145;DHT22;27813;43.516;11.890;2022-08-19T08:33:38;27.60;86.80
42145;DHT22;27813;43.516;11.890;2022-08-19T08:37:47;27.90;85.90
42145;DHT22;27813;43.516;11.890;2022-08-19T08:46:30;27.70;85.80
42145;DHT22;27813;43.516;11.890;2022-08-19T08:50:43;27.90;86.20
42145;DHT22;27813;43.516;11.890;2022-08-19T08:54:50;28.60;85.30
42145;DHT22;27813;43.516;11.890;2022-08-19T08:59:06;29.30;84.00
42145;DHT22;27813;43.516;11.890;2022-08-19T09:03:24;29.60;82.80
42145;DHT22;27813;43.516;11.890;2022-08-19T09:12:00;28.10;83.70
42145;DHT22;27813;43.516;11.890;2022-08-19T09:16:20;27.20;85.50
42145;DHT22;27813;43.516;11.890;2022-08-19T09:20:30;26.40;87.30
42145;DHT22;27813;43.516;11.890;2022-08-19T09:24:37;26.00;89.20
42145;DHT22;27813;43.516;11.890;2022-08-19T09:28:44;26.10;89.70
42145;DHT22;27813;43.516;11.890;2022-08-19T09:32:52;26.20;89.50
42145;DHT22;27813;43.516;11.890;2022-08-19T09:36:59;26.40;89.30
42145;DHT22;27813;43.516;11.890;2022-08-19T09:41:10;26.80;88.80
42145;DHT22;27813;43.516;11.890;2022-08-19T09:45:19;27.50;87.80
42145;DHT22;27813;43.516;11.890;2022-08-19T09:49:25;28.20;86.40
42145;DHT22;27813;43.516;11.890;2022-08-19T09:53:30;28.90;85.20
42145;DHT22;27813;43.516;11.890;2022-08-19T09:57:36;29.60;83.70
42145;DHT22;27813;43.516;11.890;2022-08-19T10:01:41;30.10;82.50
42145;DHT22;27813;43.516;11.890;2022-08-19T10:05:46;30.40;81.60
42145;DHT22;27813;43.516;11.890;2022-08-19T10:09:57;30.60;81.30
42145;DHT22;27813;43.516;11.890;2022-08-19T10:14:03;30.80;80.90
42145;DHT22;27813;43.516;11.890;2022-08-19T10:18:10;30.70;80.40
42145;DHT22;27813;43.516;11.890;2022-08-19T10:22:15;30.50;80.40
42145;DHT22;27813;43.516;11.890;2022-08-19T10:26:24;30.30;80.80
42145;DHT22;27813;43.516;11.890;2022-08-19T10:30:29;30.10;80.90
42145;DHT22;27813;43.516;11.890;2022-08-19T10:34:34;30.20;81.10
42145;DHT22;27813;43.516;11.890;2022-08-19T10:38:53;30.30;80.90
42145;DHT22;27813;43.516;11.890;2022-08-19T10:43:02;30.40;80.60
42145;DHT22;27813;43.516;11.890;2022-08-19T10:47:07;30.80;79.80
42145;DHT22;27813;43.516;11.890;2022-08-19T10:51:30;31.50;77.80
42145;DHT22;27813;43.516;11.890;2022-08-19T10:55:53;31.80;76.70
42145;DHT22;27813;43.516;11.890;2022-08-19T11:00:17;32.00;76.30
42145;DHT22;27813;43.516;11.890;2022-08-19T11:04:21;32.60;74.20
42145;DHT22;27813;43.516;11.890;2022-08-19T11:08:33;33.50;71.40
42145;DHT22;27813;43.516;11.890;2022-08-19T11:12:40;34.10;68.70
42145;DHT22;27813;43.516;11.890;2022-08-19T11:16:45;34.40;66.60
42145;DHT22;27813;43.516;11.890;2022-08-19T11:20:49;34.50;65.70
42145;DHT22;27813;43.516;11.890;2022-08-19T11:24:55;34.50;64.50
42145;DHT22;27813;43.516;11.890;2022-08-19T11:29:01;34.60;63.60
42145;DHT22;27813;43.516;11.890;2022-08-19T11:33:06;34.60;63.10
42145;DHT22;27813;43.516;11.890;2022-08-19T11:37:15;34.80;61.80
42145;DHT22;27813;43.516;11.890;2022-08-19T11:41:21;35.00;61.40
42145;DHT22;27813;43.516;11.890;2022-08-19T11:45:28;35.40;60.20
42145;DHT22;27813;43.516;11.890;2022-08-19T11:49:33;35.70;59.30
42145;DHT22;27813;43.516;11.890;2022-08-19T11:53:40;35.90;58.40
42145;DHT22;27813;43.516;11.890;2022-08-19T11:57:48;36.00;57.30
42145;DHT22;27813;43.516;11.890;2022-08-19T12:01:53;36.00;57.00
42145;DHT22;27813;43.516;11.890;2022-08-19T12:06:06;35.10;55.70
42145;DHT22;27813;43.516;11.890;2022-08-19T12:10:12;33.00;56.00
42145;DHT22;27813;43.516;11.890;2022-08-19T12:14:21;30.50;57.60
42145;DHT22;27813;43.516;11.890;2022-08-19T12:18:27;27.10;63.50
42145;DHT22;27813;43.516;11.890;2022-08-19T12:34:54;22.20;75.80
42145;DHT22;27813;43.516;11.890;2022-08-19T12:38:59;21.30;89.50
42145;DHT22;27813;43.516;11.890;2022-08-19T12:43:05;22.00;87.60
42145;DHT22;27813;43.516;11.890;2022-08-19T12:47:12;22.00;86.50
42145;DHT22;27813;43.516;11.890;2022-08-19T13:05:01;20.60;87.90
42145;DHT22;27813;43.516;11.890;2022-08-19T13:09:07;20.10;93.00
42145;DHT22;27813;43.516;11.890;2022-08-19T13:13:12;20.20;93.20
42145;DHT22;27813;43.516;11.890;2022-08-19T13:17:18;20.40;93.10
42145;DHT22;27813;43.516;11.890;2022-08-19T13:21:26;20.60;92.80
42145;DHT22;27813;43.516;11.890;2022-08-19T13:25:33;21.10;92.40
42145;DHT22;27813;43.516;11.890;2022-08-19T13:29:42;21.60;91.80
42145;DHT22;27813;43.516;11.890;2022-08-19T13:34:05;22.00;91.10
42145;DHT22;27813;43.516;11.890;2022-08-19T13:38:10;22.20;90.70
42145;DHT22;27813;43.516;11.890;2022-08-19T13:42:15;22.30;90.50
42145;DHT22;27813;43.516;11.890;2022-08-19T13:46:19;22.50;90.40
42145;DHT22;27813;43.516;11.890;2022-08-19T13:50:27;22.50;90.40
42145;DHT22;27813;43.516;11.890;2022-08-19T13:54:31;22.80;90.60
42145;DHT22;27813;43.516;11.890;2022-08-19T13:58:36;23.30;90.30
42145;DHT22;27813;43.516;11.890;2022-08-19T14:02:41;23.60;89.50
42145;DHT22;27813;43.516;11.890;2022-08-19T14:06:46;23.80;89.20
42145;DHT22;27813;43.516;11.890;2022-08-19T14:10:52;24.10;89.10
42145;DHT22;27813;43.516;11.890;2022-08-19T14:14:56;24.20;88.90
42145;DHT22;27813;43.516;11.890;2022-08-19T14:19:02;24.40;89.00
42145;DHT22;27813;43.516;11.890;2022-08-19T14:23:06;24.40;89.40
42145;DHT22;27813;43.516;11.890;2022-08-19T14:27:11;24.40;89.50
42145;DHT22;27813;43.516;11.890;2022-08-19T14:31:17;24.50;89.60
42145;DHT22;27813;43.516;11.890;2022-08-19T14:35:27;24.60;89.80
42145;DHT22;27813;43.516;11.890;2022-08-19T14:39:31;25.00;89.90
42145;DHT22;27813;43.516;11.890;2022-08-19T14:43:37;25.40;89.60
42145;DHT22;27813;43.516;11.890;2022-08-19T14:47:42;25.90;89.10
42145;DHT22;27813;43.516;11.890;2022-08-19T14:51:48;26.20;88.80
42145;DHT22;27813;43.516;11.890;2022-08-19T14:55:52;26.50;88.50
42145;DHT22;27813;43.516;11.890;2022-08-19T14:59:58;26.70;88.40
42145;DHT22;27813;43.516;11.890;2022-08-19T15:04:03;26.90;88.00
42145;DHT22;27813;43.516;11.890;2022-08-19T15:08:07;26.90;88.00
42145;DHT22;27813;43.516;11.890;2022-08-19T15:12:11;26.90;87.90
42145;DHT22;27813;43.516;11.890;2022-08-19T15:16:24;26.80;88.00
42145;DHT22;27813;43.516;11.890;2022-08-19T15:20:29;26.50;88.20
42145;DHT22;27813;43.516;11.890;2022-08-19T15:24:34;26.40;88.40
42145;DHT22;27813;43.516;11.890;2022-08-19T15:28:50;26.20;88.50
42145;DHT22;27813;43.516;11.890;2022-08-19T15:32:57;26.00;88.80
42145;DHT22;27813;43.516;11.890;2022-08-19T15:37:01;25.80;89.10
42145;DHT22;27813;43.516;11.890;2022-08-19T15:41:37;25.50;89.40
42145;DHT22;27813;43.516;11.890;2022-08-19T15:45:44;25.40;89.50
42145;DHT22;27813;43.516;11.890;2022-08-19T15:49:52;25.20;89.50
42145;DHT22;27813;43.516;11.890;2022-08-19T15:54:04;25.10;89.60
42145;DHT22;27813;43.516;11.890;2022-08-19T15:58:13;25.00;89.70
42145;DHT22;27813;43.516;11.890;2022-08-19T16:02:36;24.90;89.70
42145;DHT22;27813;43.516;11.890;2022-08-19T16:07:00;24.90;89.70
42145;DHT22;27813;43.516;11.890;2022-08-19T16:11:05;24.80;89.70
42145;DHT22;27813;43.516;11.890;2022-08-19T16:15:10;24.80;89.60
42145;DHT22;27813;43.516;11.890;2022-08-19T16:19:18;24.80;89.50
42145;DHT22;27813;43.516;11.890;2022-08-19T16:23:23;24.80;89.40
42145;DHT22;27813;43.516;11.890;2022-08-19T16:27:27;24.80;89.20
42145;DHT22;27813;43.516;11.890;2022-08-19T16:31:31;24.70;88.90
42145;DHT22;27813;43.516;11.890;2022-08-19T16:35:35;24.70;88.70
42145;DHT22;27813;43.516;11.890;2022-08-19T16:39:40;24.70;88.60
42145;DHT22;27813;43.516;11.890;2022-08-19T16:43:47;24.50;88.50
42145;DHT22;27813;43.516;11.890;2022-08-19T16:47:58;24.40;88.50
42145;DHT22;27813;43.516;11.890;2022-08-19T16:52:05;24.30;88.40
42145;DHT22;27813;43.516;11.890;2022-08-19T16:56:19;24.10;88.30
42145;DHT22;27813;43.516;11.890;2022-08-19T17:00:25;23.90;88.40
42145;DHT22;27813;43.516;11.890;2022-08-19T17:04:29;23.70;88.60
42145;DHT22;27813;43.516;11.890;2022-08-19T17:08:33;23.50;88.60
42145;DHT22;27813;43.516;11.890;2022-08-19T17:12:38;23.40;88.80
42145;DHT22;27813;43.516;11.890;2022-08-19T17:16:43;23.20;89.00
42145;DHT22;27813;43.516;11.890;2022-08-19T17:20:48;23.10;89.10
42145;DHT22;27813;43.516;11.890;2022-08-19T17:24:59;22.90;89.20
42145;DHT22;27813;43.516;11.890;2022-08-19T17:29:03;22.80;89.30
42145;DHT22;27813;43.516;11.890;2022-08-19T17:33:08;22.70;89.40
42145;DHT22;27813;43.516;11.890;2022-08-19T17:37:14;22.70;89.40
42145;DHT22;27813;43.516;11.890;2022-08-19T17:41:23;22.60;89.30
42145;DHT22;27813;43.516;11.890;2022-08-19T17:45:28;22.50;89.30
42145;DHT22;27813;43.516;11.890;2022-08-19T17:49:32;22.30;89.40
42145;DHT22;27813;43.516;11.890;2022-08-19T17:53:38;22.00;89.50
42145;DHT22;27813;43.516;11.890;2022-08-19T17:57:42;21.80;89.60
42145;DHT22;27813;43.516;11.890;2022-08-19T18:01:49;21.50;89.70
42145;DHT22;27813;43.516;11.890;2022-08-19T18:05:56;21.30;89.90
42145;DHT22;27813;43.516;11.890;2022-08-19T18:10:02;21.10;90.20
42145;DHT22;27813;43.516;11.890;2022-08-19T18:14:07;21.00;90.40
42145;DHT22;27813;43.516;11.890;2022-08-19T18:18:11;20.80;90.60
42145;DHT22;27813;43.516;11.890;2022-08-19T18:22:36;20.70;90.80
42145;DHT22;27813;43.516;11.890;2022-08-19T18:26:41;20.60;91.00
42145;DHT22;27813;43.516;11.890;2022-08-19T18:30:46;20.60;90.90
42145;DHT22;27813;43.516;11.890;2022-08-19T18:34:52;20.60;90.80
42145;DHT22;27813;43.516;11.890;2022-08-19T18:38:58;20.60;90.80
42145;DHT22;27813;43.516;11.890;2022-08-19T18:43:23;20.60;90.70
42145;DHT22;27813;43.516;11.890;2022-08-19T18:47:30;20.60;90.60
42145;DHT22;27813;43.516;11.890;2022-08-19T18:51:54;20.50;90.50
42145;DHT22;27813;43.516;11.890;2022-08-19T18:56:07;20.40;90.60
42145;DHT22;27813;43.516;11.890;2022-08-19T19:00:13;20.20;90.70
42145;DHT22;27813;43.516;11.890;2022-08-19T19:04:29;20.10;90.70
42145;DHT22;27813;43.516;11.890;2022-08-19T19:08:39;20.00;90.90
42145;DHT22;27813;43.516;11.890;2022-08-19T19:12:44;19.90;90.90
42145;DHT22;27813;43.516;11.890;2022-08-19T19:16:49;19.80;91.00
42145;DHT22;27813;43.516;11.890;2022-08-19T19:20:56;19.70;91.10
42145;DHT22;27813;43.516;11.890;2022-08-19T19:25:00;19.70;91.20
42145;DHT22;27813;43.516;11.890;2022-08-19T19:29:06;19.60;91.50
42145;DHT22;27813;43.516;11.890;2022-08-19T19:33:11;19.60;91.60
42145;DHT22;27813;43.516;11.890;2022-08-19T19:37:17;19.60;91.60
42145;DHT22;27813;43.516;11.890;2022-08-19T19:41:24;19.60;91.60
42145;DHT22;27813;43.516;11.890;2022-08-19T19:45:37;19.70;91.60
42145;DHT22;27813;43.516;11.890;2022-08-19T19:49:49;19.70;91.50
42145;DHT22;27813;43.516;11.890;2022-08-19T19:54:39;19.70;91.40
42145;DHT22;27813;43.516;11.890;2022-08-19T19:59:04;19.70;91.40
42145;DHT22;27813;43.516;11.890;2022-08-19T20:03:28;19.80;91.50
42145;DHT22;27813;43.516;11.890;2022-08-19T20:07:38;19.70;91.50
42145;DHT22;27813;43.516;11.890;2022-08-19T20:12:06;19.70;91.50
42145;DHT22;27813;43.516;11.890;2022-08-19T20:16:20;19.70;91.40
42145;DHT22;27813;43.516;11.890;2022-08-19T20:20:44;19.70;91.40
42145;DHT22;27813;43.516;11.890;2022-08-19T20:25:11;19.70;91.50
42145;DHT22;27813;43.516;11.890;2022-08-19T20:29:29;19.70;91.50
42145;DHT22;27813;43.516;11.890;2022-08-19T20:33:52;19.70;91.50
42145;DHT22;27813;43.516;11.890;2022-08-19T20:38:08;19.60;91.40
42145;DHT22;27813;43.516;11.890;2022-08-19T20:42:27;19.50;91.50
42145;DHT22;27813;43.516;11.890;2022-08-19T20:46:33;19.50;91.50
42145;DHT22;27813;43.516;11.890;2022-08-19T20:50:57;19.50;91.60
42145;DHT22;27813;43.516;11.890;2022-08-19T20:55:09;19.50;91.60
42145;DHT22;27813;43.516;11.890;2022-08-19T20:59:25;19.50;91.60
42145;DHT22;27813;43.516;11.890;2022-08-19T21:03:43;19.50;91.70
42145;DHT22;27813;43.516;11.890;2022-08-19T21:07:50;19.50;91.80
42145;DHT22;27813;43.516;11.890;2022-08-19T21:11:57;19.50;91.80
42145;DHT22;27813;43.516;11.890;2022-08-19T21:16:04;19.50;91.80
42145;DHT22;27813;43.516;11.890;2022-08-19T21:20:22;19.50;91.70
42145;DHT22;27813;43.516;11.890;2022-08-19T21:24:31;19.30;91.40
42145;DHT22;27813;43.516;11.890;2022-08-19T21:28:40;19.20;91.50
42145;DHT22;27813;43.516;11.890;2022-08-19T21:32:50;19.00;91.70
42145;DHT22;27813;43.516;11.890;2022-08-19T21:36:55;19.00;92.00
42145;DHT22;27813;43.516;11.890;2022-08-19T21:41:01;19.00;92.20
42145;DHT22;27813;43.516;11.890;2022-08-19T21:45:09;19.10;92.20
42145;DHT22;27813;43.516;11.890;2022-08-19T21:49:14;19.20;92.00
42145;DHT22;27813;43.516;11.890;2022-08-19T21:53:20;19.30;92.00
42145;DHT22;27813;43.516;11.890;2022-08-19T21:57:26;19.30;91.90
42145;DHT22;27813;43.516;11.890;2022-08-19T22:01:33;19.30;91.90
42145;DHT22;27813;43.516;11.890;2022-08-19T22:05:37;19.30;91.70
42145;DHT22;27813;43.516;11.890;2022-08-19T22:09:43;19.20;91.70
42145;DHT22;27813;43.516;11.890;2022-08-19T22:13:48;19.10;91.80
42145;DHT22;27813;43.516;11.890;2022-08-19T22:17:57;19.10;92.00
42145;DHT22;27813;43.516;11.890;2022-08-19T22:22:04;19.00;92.20
42145;DHT22;27813;43.516;11.890;2022-08-19T22:26:09;19.00;92.40
42145;DHT22;27813;43.516;11.890;2022-08-19T22:30:15;19.00;92.40
42145;DHT22;27813;43.516;11.890;2022-08-19T22:34:20;19.00;92.40
42145;DHT22;27813;43.516;11.890;2022-08-19T22:38:26;19.00;92.40
42145;DHT22;27813;43.516;11.890;2022-08-19T22:42:30;19.00;92.50
42145;DHT22;27813;43.516;11.890;2022-08-19T22:46:36;18.90;92.50
42145;DHT22;27813;43.516;11.890;2022-08-19T22:50:43;18.80;92.60
42145;DHT22;27813;43.516;11.890;2022-08-19T22:55:08;18.80;92.60
42145;DHT22;27813;43.516;11.890;2022-08-19T22:59:12;18.70;92.90
42145;DHT22;27813;43.516;11.890;2022-08-19T23:03:16;18.70;93.00
42145;DHT22;27813;43.516;11.890;2022-08-19T23:07:21;18.60;93.00
42145;DHT22;27813;43.516;11.890;2022-08-19T23:11:26;18.60;93.00
42145;DHT22;27813;43.516;11.890;2022-08-19T23:15:31;18.50;93.10
42145;DHT22;27813;43.516;11.890;2022-08-19T23:19:36;18.50;93.30
42145;DHT22;27813;43.516;11.890;2022-08-19T23:23:41;18.40;93.30
42145;DHT22;27813;43.516;11.890;2022-08-19T23:27:46;18.40;93.40
